createdAt,value
2023-01-17T00:06:33.563Z,0.30
2023-01-17T00:16:38.559Z,0.70
2023-01-17T00:26:55.769Z,0.60
2023-01-17T00:36:59.217Z,0.50
2023-01-17T00:47:20.006Z,0.43
2023-01-17T00:57:42.183Z,0.47
2023-01-17T01:08:03.270Z,0.40
2023-01-17T01:18:27.219Z,0.60
2023-01-17T01:28:47.752Z,0.30
2023-01-17T01:38:51.981Z,0.70
2023-01-17T01:48:57.617Z,0.47
2023-01-17T01:59:05.265Z,0.70
2023-01-17T02:09:15.204Z,0.70
2023-01-17T02:19:53.286Z,0.90
2023-01-17T02:30:34.321Z,0.70
2023-01-17T02:40:43.113Z,1.13
2023-01-17T02:51:03.480Z,0.70
2023-01-17T03:01:16.168Z,0.80
2023-01-17T03:11:21.256Z,0.83
2023-01-17T03:21:25.269Z,0.70
2023-01-17T03:31:29.640Z,0.80
2023-01-17T03:41:32.719Z,0.60
2023-01-17T03:51:37.151Z,0.70
2023-01-17T04:01:40.140Z,0.80
2023-01-17T04:11:44.736Z,1.13
2023-01-17T04:21:47.880Z,0.90
2023-01-17T04:31:52.618Z,1.00
2023-01-17T04:41:55.558Z,0.80
2023-01-17T04:51:59.706Z,1.13
2023-01-17T05:02:02.999Z,1.27
2023-01-17T05:12:07.664Z,1.23
2023-01-17T05:22:15.794Z,1.20
2023-01-17T05:32:20.353Z,1.63
2023-01-17T05:42:23.592Z,1.20
2023-01-17T05:52:28.061Z,1.70
2023-01-17T06:02:31.455Z,1.20
2023-01-17T06:12:35.769Z,1.40
2023-01-17T06:22:38.756Z,1.50
2023-01-17T06:32:43.175Z,1.70
2023-01-17T06:42:46.196Z,1.77
2023-01-17T06:52:57.669Z,1.77
2023-01-17T07:03:01.247Z,1.83
2023-01-17T07:13:06.123Z,1.70
2023-01-17T07:23:09.471Z,1.90
2023-01-17T07:33:18.020Z,2.10
2023-01-17T07:43:21.531Z,2.70
2023-01-17T07:53:27.185Z,2.53
2023-01-17T08:03:32.299Z,2.53
2023-01-17T08:13:36.649Z,3.07
2023-01-17T08:23:39.722Z,3.00
2023-01-17T08:33:44.049Z,2.10
2023-01-17T08:43:48.298Z,2.47
2023-01-17T08:53:54.178Z,2.40
2023-01-17T09:03:57.576Z,2.33
2023-01-17T09:14:02.160Z,2.90
2023-01-17T09:24:05.266Z,1.93
2023-01-17T09:34:09.865Z,2.33
2023-01-17T09:44:24.827Z,2.43
2023-01-17T09:54:35.939Z,1.90
2023-01-17T10:15:07.505Z,1.77
2023-01-17T10:25:23.733Z,1.50
2023-01-17T10:35:32.625Z,1.97
2023-01-17T10:45:42.114Z,1.60
2023-01-17T10:55:52.129Z,1.75
2023-01-17T11:06:18.193Z,1.30
2023-01-17T11:16:27.514Z,1.27
2023-01-17T11:26:32.790Z,1.50
2023-01-17T11:36:37.314Z,1.10
2023-01-17T11:46:41.637Z,1.10
2023-01-17T11:56:46.554Z,1.13
2023-01-17T12:07:10.939Z,1.10
2023-01-17T12:17:28.192Z,0.90
2023-01-17T12:27:42.512Z,0.77
2023-01-17T12:38:04.158Z,0.90
2023-01-17T12:48:13.059Z,0.90
2023-01-17T12:58:22.575Z,1.83
2023-01-17T13:08:34.422Z,1.05
2023-01-17T13:18:45.305Z,0.93
2023-01-17T13:28:57.245Z,0.80
2023-01-17T13:39:18.192Z,1.00
2023-01-17T13:49:24.486Z,0.80
2023-01-17T13:59:32.152Z,0.80
2023-01-17T14:09:43.660Z,0.90
2023-01-17T14:19:51.032Z,0.90
2023-01-17T14:29:58.633Z,0.80
2023-01-17T14:40:03.611Z,0.70
2023-01-17T14:50:21.795Z,0.70
2023-01-17T15:00:29.181Z,0.90
2023-01-17T15:10:33.527Z,0.80
2023-01-17T15:20:38.936Z,0.97
2023-01-17T15:31:10.476Z,1.00
2023-01-17T15:41:18.117Z,1.13
2023-01-17T15:51:41.496Z,1.10
2023-01-17T16:01:54.228Z,1.10
2023-01-17T16:11:57.563Z,1.30
2023-01-17T16:22:02.816Z,1.53
2023-01-17T16:32:08.939Z,1.20
2023-01-17T16:42:13.733Z,12.33
2023-01-17T16:52:18.159Z,3.73
2023-01-17T17:02:23.321Z,4.37
2023-01-17T17:12:26.466Z,3.90
2023-01-17T17:22:30.710Z,5.07
2023-01-17T17:32:34.484Z,6.10
2023-01-17T17:42:38.696Z,5.47
2023-01-17T17:52:44.191Z,6.03
2023-01-17T18:02:48.755Z,3.67
2023-01-17T18:12:52.133Z,4.70
2023-01-17T18:22:56.446Z,7.83
2023-01-17T18:32:59.597Z,6.07
2023-01-17T18:43:05.897Z,4.60
2023-01-17T18:53:08.898Z,3.93
2023-01-17T19:03:13.461Z,5.17
2023-01-17T19:13:16.418Z,7.87
2023-01-17T19:23:21.667Z,7.00
2023-01-17T19:33:25.083Z,5.37
2023-01-17T19:43:29.303Z,5.90
2023-01-17T19:53:32.298Z,6.17
2023-01-17T20:03:41.068Z,6.10
2023-01-17T20:13:45.210Z,10.30
2023-01-17T20:23:50.558Z,7.47
2023-01-17T20:33:55.608Z,7.50
2023-01-17T20:44:01.672Z,6.20
2023-01-17T20:54:05.431Z,7.83
2023-01-17T21:04:10.810Z,7.53
2023-01-17T21:14:14.815Z,7.97
2023-01-17T21:24:20.073Z,7.57
2023-01-17T21:34:25.276Z,8.43
2023-01-17T21:44:36.299Z,11.90
2023-01-17T21:54:57.765Z,8.90
2023-01-17T22:05:03.381Z,8.40
2023-01-17T22:15:08.729Z,7.77
2023-01-17T22:25:13.221Z,8.07
2023-01-17T22:35:16.394Z,7.77
2023-01-17T22:45:21.019Z,8.33
2023-01-17T22:55:24.008Z,8.07
2023-01-17T23:05:28.347Z,8.40
2023-01-17T23:15:49.225Z,7.67
2023-01-17T23:25:53.954Z,8.13
2023-01-17T23:35:57.082Z,7.83
2023-01-17T23:46:02.883Z,7.40
2023-01-17T23:56:07.848Z,7.27
